Weather History for Kankakee, IL

Change the Weather History Date:

Friday, April 13, 2012

  Actual Average Record
Temperature  
Mean Temperature 52 °F -  
Max Temperature 64 °F 59 °F 84 °F (1977)
Min Temperature 40 °F 37 °F 25 °F (1990)
Degree Days  
Heating Degree Days 13    
Growing Degree Days 2 (Base 50)    
Moisture  
Dew Point 31 °F    
Average Humidity 45    
Maximum Humidity 65    
Minimum Humidity 25    
Precipitation  
Precipitation 0.00 in - - ()
Sea Level Pressure  
Sea Level Pressure 30.15 in    
Wind  
Wind Speed 10 mph (SE)    
Max Wind Speed 18 mph    
Max Gust Speed 25 mph    
Visibility 10 miles    
Events Rain    
Averages and records for this station are not official NWS values.
T = Trace of Precipitation, MM = Missing Value Source: NWS Daily Summary

Daily Weather History Graph

Daily Weather History Graph

Search for Another Location

Airport:

Trip Planner

Search our weather history database for the weather conditions in past years. The results will help you decide how hot, cold, wet, or windy it might be!

Date:

Astronomy

Apr. 13, 2012 Rise Set
Actual Time 6:14 AM CDT 7:29 PM CDT
Civil Twilight 5:46 AM CDT 7:58 PM CDT
Nautical Twilight 5:12 AM CDT 8:32 PM CDT
Astronomical Twilight 4:36 AM CDT 9:08 PM CDT
Moon 2:02 AM CDT (4/13) 12:15 PM CDT (4/13)
Length of Visible Light 14h 12m
Length of Day
13h 15m
Waning Gibbous, 47% of the Moon is Illuminated
Apr 13
Waning Gibbous
Apr 21
New
Apr 29
First Quarter
May 5
Full
May 12
Last Quarter

Hourly Weather History & Observations

Time (CDT) Temp. Windchill Dew Point Humidity Pressure Visibility Wind Dir Wind Speed Gust Speed Precip Events Conditions
12:15 AM 46.4 °F 42.9 °F 28.9 °F 51% 30.18 in 10.0 mi ESE 6.9 mph - N/A   Clear
12:35 AM 46.8 °F - 28.4 °F 49% 30.18 in 10.0 mi ESE 8.1 mph - N/A   Clear
12:55 AM 46.6 °F - 28.2 °F 49% 30.18 in 10.0 mi ESE 6.9 mph - N/A   Clear
1:15 AM 45.5 °F 41.8 °F 28.9 °F 52% 30.18 in 10.0 mi ESE 6.9 mph - N/A   Clear
1:35 AM 42.8 °F 37.0 °F 29.3 °F 59% 30.18 in 10.0 mi East 10.4 mph - N/A   Clear
1:55 AM 44.8 °F 40.4 °F 29.1 °F 54% 30.18 in 10.0 mi East 8.1 mph - N/A   Clear
2:15 AM 42.3 °F 38.6 °F 29.1 °F 60% 30.19 in 10.0 mi ESE 5.8 mph - N/A   Clear
2:35 AM 43.5 °F 40.9 °F 29.1 °F 57% 30.19 in 10.0 mi ESE 4.6 mph - N/A   Clear
2:55 AM 42.4 °F 38.8 °F 29.1 °F 59% 30.19 in 10.0 mi ESE 5.8 mph - N/A   Clear
3:15 AM 41.9 °F 37.5 °F 29.1 °F 61% 30.20 in 10.0 mi East 6.9 mph - N/A   Clear
3:35 AM 40.1 °F 36.1 °F 29.1 °F 65% 30.20 in 10.0 mi East 5.8 mph - N/A   Clear
3:55 AM 40.1 °F 36.1 °F 29.3 °F 65% 30.20 in 10.0 mi East 5.8 mph - N/A   Clear
4:15 AM 41.2 °F 36.0 °F 29.3 °F 63% 30.20 in 10.0 mi East 8.1 mph - N/A   Clear
4:35 AM 40.6 °F 36.0 °F 29.3 °F 64% 30.19 in 10.0 mi ESE 6.9 mph - N/A   Clear
4:55 AM 41.2 °F 36.6 °F 29.3 °F 63% 30.19 in 10.0 mi East 6.9 mph - N/A   Clear
5:15 AM 41.2 °F 36.6 °F 29.1 °F 62% 30.19 in 10.0 mi ESE 6.9 mph - N/A   Clear
5:35 AM 40.6 °F 36.0 °F 28.9 °F 63% 30.19 in 10.0 mi ESE 6.9 mph - N/A   Clear
5:55 AM 40.1 °F 35.3 °F 28.9 °F 64% 30.19 in 10.0 mi ESE 6.9 mph - N/A   Clear
6:15 AM 41.2 °F 36.0 °F 28.9 °F 62% 30.19 in 10.0 mi ESE 8.1 mph - N/A   Clear
6:35 AM 41.5 °F 35.9 °F 28.9 °F 61% 30.19 in 10.0 mi ESE 9.2 mph - N/A   Clear
6:55 AM 41.9 °F 36.9 °F 29.8 °F 62% 30.19 in 10.0 mi ESE 8.1 mph - N/A   Clear
7:15 AM 42.8 °F 38.0 °F 30.4 °F 62% 30.18 in 10.0 mi ESE 8.1 mph - N/A   Clear
7:35 AM 44.2 °F 39.2 °F 31.1 °F 60% 30.18 in 10.0 mi ESE 9.2 mph - N/A   Clear
7:55 AM 46.2 °F 41.7 °F 31.1 °F 56% 30.19 in 10.0 mi ESE 9.2 mph - N/A   Clear
8:15 AM 47.8 °F - 31.3 °F 53% 30.19 in 10.0 mi SE 6.9 mph - N/A   Clear
8:35 AM 50.5 °F - 32.2 °F 49% 30.19 in 10.0 mi SE 8.1 mph - N/A   Clear
8:55 AM 53.8 °F - 31.6 °F 43% 30.19 in 10.0 mi SSE 10.4 mph - N/A   Clear
9:15 AM 56.3 °F - 32.0 °F 40% 30.19 in 10.0 mi SE 12.7 mph 16.1 mph N/A   Clear
9:35 AM 57.9 °F - 30.0 °F 35% 30.18 in 10.0 mi SSE 13.8 mph - N/A   Clear
9:55 AM 59.2 °F - 29.3 °F 32% 30.18 in 10.0 mi SSE 13.8 mph 20.7 mph N/A   Clear
10:15 AM 61.0 °F - 29.7 °F 31% 30.19 in 10.0 mi South 13.8 mph 19.6 mph N/A   Clear
10:35 AM 61.7 °F - 28.9 °F 29% 30.20 in 10.0 mi SSE 13.8 mph 21.9 mph N/A   Clear
10:55 AM 61.7 °F - 28.4 °F 28% 30.21 in 10.0 mi SSE 12.7 mph 24.2 mph N/A   Clear
11:15 AM 62.6 °F - 28.0 °F 27% 30.20 in 10.0 mi SSE 13.8 mph 24.2 mph N/A   Clear
11:35 AM 63.7 °F - 27.7 °F 26% 30.20 in 10.0 mi SE 18.4 mph 23.0 mph N/A   Clear
11:55 AM 64.0 °F - 28.2 °F 26% 30.19 in 10.0 mi South 13.8 mph 19.6 mph N/A   Clear
12:15 PM 63.5 °F - 27.7 °F 26% 30.20 in 10.0 mi SE 15.0 mph 19.6 mph N/A   Clear
12:35 PM 63.1 °F - 27.7 °F 26% 30.19 in 10.0 mi SSE 15.0 mph 19.6 mph N/A   Clear
12:55 PM 63.1 °F - 27.0 °F 25% 30.19 in 10.0 mi South 17.3 mph 23.0 mph N/A   Clear
1:15 PM 62.8 °F - 26.2 °F 25% 30.18 in 10.0 mi SSE 12.7 mph 17.3 mph N/A   Clear
1:35 PM 62.4 °F - 26.1 °F 25% 30.17 in 10.0 mi South 9.2 mph 17.3 mph N/A   Mostly Cloudy
1:55 PM 63.0 °F - 26.6 °F 25% 30.17 in 10.0 mi South 10.4 mph 19.6 mph N/A   Mostly Cloudy
2:15 PM 62.4 °F - 26.8 °F 26% 30.16 in 10.0 mi SSE 11.5 mph - N/A   Overcast
2:35 PM 62.4 °F - 26.2 °F 25% 30.14 in 10.0 mi SSE 12.7 mph 19.6 mph N/A   Overcast
2:55 PM 62.6 °F - 26.1 °F 25% 30.13 in 10.0 mi SSE 13.8 mph - N/A   Mostly Cloudy
3:15 PM 62.6 °F - 26.6 °F 26% 30.11 in 10.0 mi South 17.3 mph - N/A   Scattered Clouds
3:35 PM 61.9 °F - 27.9 °F 28% 30.10 in 10.0 mi SSE 15.0 mph 21.9 mph N/A   Scattered Clouds
3:55 PM 61.7 °F - 28.2 °F 28% 30.09 in 10.0 mi SSE 13.8 mph 23.0 mph N/A   Mostly Cloudy
4:15 PM 60.4 °F - 32.0 °F 34% 30.09 in 10.0 mi South 16.1 mph - N/A   Overcast
4:35 PM 59.0 °F - 33.1 °F 38% 30.13 in 10.0 mi SW 15.0 mph 18.4 mph N/A   Overcast
4:55 PM 59.0 °F - 33.8 °F 39% 30.13 in 10.0 mi SSW 10.4 mph - N/A Rain Light Rain
5:15 PM 57.9 °F - 32.9 °F 39% 30.10 in 10.0 mi South 17.3 mph 24.2 mph N/A   Light Drizzle
5:35 PM 57.4 °F - 35.1 °F 43% 30.09 in 10.0 mi South 13.8 mph 23.0 mph N/A   Overcast
5:55 PM 57.2 °F - 36.5 °F 46% 30.10 in 10.0 mi South 18.4 mph 25.3 mph N/A   Mostly Cloudy
6:15 PM 56.8 °F - 34.3 °F 43% 30.10 in 10.0 mi SSE 12.7 mph 21.9 mph N/A   Mostly Cloudy
6:35 PM 57.0 °F - 34.5 °F 43% 30.09 in 10.0 mi SSE 11.5 mph 18.4 mph N/A   Mostly Cloudy
6:55 PM 56.8 °F - 34.9 °F 44% 30.09 in 10.0 mi SSE 11.5 mph 19.6 mph N/A   Overcast
7:15 PM 56.5 °F - 35.1 °F 45% 30.09 in 10.0 mi SE 6.9 mph - N/A   Overcast
7:35 PM 55.6 °F - 35.1 °F 46% 30.07 in 10.0 mi SE 8.1 mph - N/A   Overcast
7:55 PM 56.3 °F - 35.4 °F 46% 30.07 in 10.0 mi SSE 8.1 mph - N/A   Overcast
8:15 PM 56.1 °F - 35.6 °F 46% 30.06 in 10.0 mi SSE 9.2 mph - N/A   Overcast
8:35 PM 56.1 °F - 35.6 °F 46% 30.06 in 10.0 mi SSE 11.5 mph - N/A   Overcast
8:55 PM 56.3 °F - 35.6 °F 46% 30.06 in 10.0 mi South 10.4 mph - N/A   Overcast
9:15 PM 56.3 °F - 35.1 °F 45% 30.06 in 10.0 mi South 13.8 mph 18.4 mph N/A   Overcast
9:35 PM 56.1 °F - 35.2 °F 45% 30.07 in 10.0 mi South 10.4 mph - N/A   Overcast
9:55 PM 55.9 °F - 35.4 °F 46% 30.06 in 10.0 mi South 11.5 mph - N/A   Overcast
10:15 PM 55.9 °F - 35.8 °F 47% 30.06 in 10.0 mi South 12.7 mph 20.7 mph N/A   Overcast
10:35 PM 55.9 °F - 36.5 °F 48% 30.05 in 10.0 mi South 12.7 mph - N/A   Overcast
10:55 PM 55.8 °F - 37.2 °F 50% 30.06 in 10.0 mi South 13.8 mph - N/A   Overcast
11:15 PM 56.1 °F - 37.0 °F 49% 30.06 in 10.0 mi South 13.8 mph 20.7 mph N/A   Overcast
11:35 PM 56.3 °F - 37.4 °F 49% 30.06 in 10.0 mi South 15.0 mph 20.7 mph N/A   Overcast
11:55 PM 55.8 °F - 38.1 °F 52% 30.05 in 10.0 mi South 15.0 mph - N/A   Overcast